createdAt,value
2023-04-13T00:18:21.482Z,20.0
2023-04-13T00:48:21.469Z,19.9
2023-04-13T01:18:21.456Z,19.8
2023-04-13T01:48:21.454Z,19.8
2023-04-13T02:18:21.490Z,19.6
2023-04-13T02:48:21.468Z,19.6
2023-04-13T03:18:21.443Z,19.6
2023-04-13T03:48:21.465Z,19.7
2023-04-13T04:18:21.481Z,20.0
2023-04-13T04:48:21.446Z,20.1
2023-04-13T05:18:21.191Z,20.1
2023-04-13T05:48:21.439Z,20.5
2023-04-13T06:18:21.452Z,20.6
2023-04-13T06:48:21.467Z,20.7
2023-04-13T07:18:21.481Z,20.8
2023-04-13T07:48:21.439Z,21.0
2023-04-13T08:18:21.453Z,21.0
2023-04-13T08:48:21.458Z,21.1
2023-04-13T09:18:21.511Z,21.1
2023-04-13T09:48:21.482Z,21.1
2023-04-13T10:18:21.422Z,21.2
2023-04-13T10:48:21.417Z,21.1
2023-04-13T11:18:21.414Z,21.0
2023-04-13T11:48:21.417Z,21.0
2023-04-13T12:18:21.507Z,21.0
2023-04-13T12:48:21.393Z,21.0
2023-04-13T13:18:21.593Z,21.0
2023-04-13T13:48:21.428Z,21.0
2023-04-13T14:18:21.428Z,21.0
2023-04-13T14:48:21.555Z,21.0
2023-04-13T15:18:21.598Z,21.0
2023-04-13T15:48:21.451Z,21.0
2023-04-13T16:18:21.570Z,21.0
2023-04-13T16:48:21.368Z,21.0
2023-04-13T17:18:21.105Z,21.0
2023-04-13T17:48:21.423Z,21.0
2023-04-13T18:18:21.359Z,21.0
2023-04-13T18:48:21.373Z,21.0
2023-04-13T19:18:21.355Z,21.0
2023-04-13T19:48:21.363Z,20.8
2023-04-13T20:18:21.346Z,20.6
2023-04-13T20:48:21.377Z,20.5
2023-04-13T21:18:21.343Z,20.3
2023-04-13T21:48:21.453Z,20.2
2023-04-13T22:18:21.368Z,20.1
2023-04-13T22:48:21.377Z,20.0
2023-04-13T23:18:21.372Z,19.8
2023-04-13T23:48:21.364Z,19.8
